createdAt,value
2022-12-06T00:00:14.101Z,1012.02
2022-12-06T00:01:14.071Z,1012.06
2022-12-06T00:02:14.103Z,1012.03
2022-12-06T00:03:14.071Z,1012.13
2022-12-06T00:04:14.030Z,1012.06
2022-12-06T00:05:14.016Z,1012.14
2022-12-06T00:06:14.012Z,1012.05
2022-12-06T00:07:13.989Z,1012.06
2022-12-06T00:08:14.015Z,1012.07
2022-12-06T00:09:13.968Z,1012.12
2022-12-06T00:10:13.962Z,1012.12
2022-12-06T00:11:13.948Z,1012.12
2022-12-06T00:12:13.939Z,1012.19
2022-12-06T00:13:13.931Z,1012.08
2022-12-06T00:14:13.920Z,1012.13
2022-12-06T00:15:13.910Z,1012.16
2022-12-06T00:16:14.011Z,1012.11
2022-12-06T00:17:13.878Z,1012.10
2022-12-06T00:18:13.873Z,1012.11
2022-12-06T00:19:13.873Z,1012.06
2022-12-06T00:20:13.844Z,1012.11
2022-12-06T00:21:13.834Z,1012.10
2022-12-06T00:22:13.828Z,1012.11
2022-12-06T00:23:13.817Z,1012.10
2022-12-06T00:24:13.804Z,1012.10
2022-12-06T00:25:13.793Z,1012.11
2022-12-06T00:26:13.783Z,1012.13
2022-12-06T00:27:13.771Z,1012.08
2022-12-06T00:28:13.759Z,1012.13
2022-12-06T00:29:13.755Z,1012.18
2022-12-06T00:30:13.732Z,1012.13
2022-12-06T00:31:13.727Z,1012.15
2022-12-06T00:32:19.305Z,1012.18
2022-12-06T00:33:13.703Z,1012.15
2022-12-06T00:34:13.691Z,1012.19
2022-12-06T00:35:13.674Z,1012.16
2022-12-06T00:36:13.673Z,1012.17
2022-12-06T00:37:13.650Z,1012.15
2022-12-06T00:38:13.646Z,1012.12
2022-12-06T00:39:13.634Z,1012.09
2022-12-06T00:40:13.625Z,1012.04
2022-12-06T00:41:13.617Z,1012.06
2022-12-06T00:42:13.597Z,1012.03
2022-12-06T00:43:13.583Z,1011.98
2022-12-06T00:44:13.590Z,1012.01
2022-12-06T00:45:13.564Z,1012.05
2022-12-06T00:46:13.674Z,1012.03
2022-12-06T00:47:13.539Z,1011.98
2022-12-06T00:48:13.553Z,1011.99
2022-12-06T00:49:13.520Z,1012.04
2022-12-06T00:50:13.505Z,1012.03
2022-12-06T00:51:13.500Z,1012.03
2022-12-06T00:52:13.488Z,1011.98
2022-12-06T00:53:13.486Z,1011.93
2022-12-06T00:54:13.465Z,1011.95
2022-12-06T00:55:13.449Z,1012.00
2022-12-06T00:56:13.440Z,1012.03
2022-12-06T00:57:13.425Z,1012.00
2022-12-06T00:58:13.432Z,1012.00
2022-12-06T00:59:13.409Z,1012.01
2022-12-06T01:00:13.405Z,1012.00
2022-12-06T01:01:13.448Z,1012.01
2022-12-06T01:02:13.375Z,1011.98
2022-12-06T01:03:13.424Z,1012.00
2022-12-06T01:04:13.371Z,1011.97
2022-12-06T01:05:13.343Z,1011.92
2022-12-06T01:06:13.328Z,1012.01
2022-12-06T01:07:13.324Z,1011.97
2022-12-06T01:08:13.418Z,1011.92
2022-12-06T01:09:13.299Z,1011.98
2022-12-06T01:10:13.281Z,1011.84
2022-12-06T01:11:13.275Z,1011.89
2022-12-06T01:12:13.267Z,1011.88
2022-12-06T01:13:13.251Z,1011.87
2022-12-06T01:14:13.234Z,1011.84
2022-12-06T01:15:13.229Z,1011.83
2022-12-06T01:16:13.285Z,1011.89
2022-12-06T01:17:13.203Z,1011.85
2022-12-06T01:18:13.194Z,1011.80
2022-12-06T01:19:13.178Z,1011.89
2022-12-06T01:20:13.198Z,1011.82
2022-12-06T01:21:13.162Z,1011.84
2022-12-06T01:22:13.145Z,1011.82
2022-12-06T01:23:13.134Z,1011.90
2022-12-06T01:24:13.129Z,1011.86
2022-12-06T01:25:13.122Z,1011.87
2022-12-06T01:26:13.100Z,1011.86
2022-12-06T01:27:13.092Z,1011.87
2022-12-06T01:28:13.086Z,1011.85
2022-12-06T01:29:13.073Z,1011.91
2022-12-06T01:30:13.056Z,1011.84
2022-12-06T01:31:13.190Z,1011.89
2022-12-06T01:32:13.041Z,1011.86
2022-12-06T01:33:13.033Z,1011.90
2022-12-06T01:34:13.120Z,1011.87
2022-12-06T01:35:13.005Z,1011.90
2022-12-06T01:36:13.016Z,1011.91
2022-12-06T01:37:12.986Z,1011.95
2022-12-06T01:38:12.974Z,1011.84
2022-12-06T01:39:12.962Z,1011.95
2022-12-06T01:40:12.947Z,1011.88
2022-12-06T01:41:12.939Z,1011.89
2022-12-06T01:42:12.923Z,1011.84
2022-12-06T01:43:12.917Z,1011.91
2022-12-06T01:44:17.107Z,1011.84
2022-12-06T01:45:12.891Z,1011.87
2022-12-06T01:46:13.042Z,1011.84
2022-12-06T01:47:12.898Z,1011.90
2022-12-06T01:48:12.868Z,1011.89
2022-12-06T01:49:12.857Z,1011.84
2022-12-06T01:50:12.842Z,1011.79
2022-12-06T01:51:14.857Z,1011.83
2022-12-06T01:52:12.830Z,1011.89
2022-12-06T01:53:12.804Z,1011.84
2022-12-06T01:54:12.786Z,1011.80
2022-12-06T01:55:12.783Z,1011.87
2022-12-06T01:56:12.770Z,1011.81
2022-12-06T01:57:12.754Z,1011.77
2022-12-06T01:58:12.745Z,1011.88
2022-12-06T01:59:12.744Z,1011.87
2022-12-06T02:00:12.720Z,1011.86
2022-12-06T02:01:12.790Z,1011.82
2022-12-06T02:02:12.739Z,1011.86
2022-12-06T02:03:12.685Z,1011.83
2022-12-06T02:04:12.684Z,1011.88
2022-12-06T02:05:12.675Z,1011.90
2022-12-06T02:06:12.658Z,1011.85
2022-12-06T02:07:12.675Z,1011.81
2022-12-06T02:08:12.708Z,1011.78
2022-12-06T02:09:12.626Z,1011.83
2022-12-06T02:10:12.626Z,1011.85
2022-12-06T02:11:12.605Z,1011.85
2022-12-06T02:12:12.605Z,1011.75
2022-12-06T02:13:12.572Z,1011.70
2022-12-06T02:14:12.565Z,1011.76
2022-12-06T02:15:12.551Z,1011.73
2022-12-06T02:16:12.550Z,1011.68
2022-12-06T02:17:12.587Z,1011.74
2022-12-06T02:18:12.516Z,1011.67
2022-12-06T02:19:12.508Z,1011.61
2022-12-06T02:20:12.499Z,1011.67
2022-12-06T02:21:12.494Z,1011.62
2022-12-06T02:22:12.478Z,1011.61
2022-12-06T02:23:12.495Z,1011.61
2022-12-06T02:24:12.455Z,1011.54
2022-12-06T02:25:12.447Z,1011.53
2022-12-06T02:26:12.440Z,1011.59
2022-12-06T02:27:12.415Z,1011.54
2022-12-06T02:28:12.408Z,1011.51
2022-12-06T02:29:12.398Z,1011.51
2022-12-06T02:30:12.381Z,1011.55
2022-12-06T02:31:12.529Z,1011.52
2022-12-06T02:32:12.365Z,1011.52
2022-12-06T02:33:12.361Z,1011.49
2022-12-06T02:34:12.340Z,1011.51
2022-12-06T02:35:12.332Z,1011.52
2022-12-06T02:36:12.326Z,1011.55
2022-12-06T02:37:12.316Z,1011.58
2022-12-06T02:38:13.287Z,1011.50
2022-12-06T02:39:12.321Z,1011.51
2022-12-06T02:40:12.268Z,1011.43
2022-12-06T02:41:12.257Z,1011.51
2022-12-06T02:42:12.259Z,1011.46
2022-12-06T02:43:12.245Z,1011.50
2022-12-06T02:44:12.232Z,1011.49
2022-12-06T02:45:12.213Z,1011.47
2022-12-06T02:46:12.290Z,1011.46
2022-12-06T02:47:12.204Z,1011.46
2022-12-06T02:48:12.178Z,1011.45
2022-12-06T02:49:12.173Z,1011.47
2022-12-06T02:50:12.165Z,1011.42
2022-12-06T02:51:12.155Z,1011.47
2022-12-06T02:52:12.133Z,1011.40
2022-12-06T02:53:12.127Z,1011.39
2022-12-06T02:54:12.116Z,1011.41
2022-12-06T02:55:12.130Z,1011.47
2022-12-06T02:56:12.097Z,1011.47
2022-12-06T02:57:12.080Z,1011.44
2022-12-06T02:58:12.071Z,1011.43
2022-12-06T02:59:12.053Z,1011.35
2022-12-06T03:00:12.053Z,1011.39
2022-12-06T03:01:12.079Z,1011.42
2022-12-06T03:02:12.094Z,1011.39
2022-12-06T03:03:12.016Z,1011.40
2022-12-06T03:04:12.005Z,1011.34
2022-12-06T03:05:11.996Z,1011.35
2022-12-06T03:06:11.977Z,1011.34
2022-12-06T03:07:11.963Z,1011.35
2022-12-06T03:08:12.026Z,1011.28
2022-12-06T03:09:11.942Z,1011.35
2022-12-06T03:10:11.935Z,1011.28
2022-12-06T03:11:11.948Z,1011.32
2022-12-06T03:12:11.914Z,1011.26
2022-12-06T03:13:11.915Z,1011.28
2022-12-06T03:14:14.670Z,1011.26
2022-12-06T03:15:11.877Z,1011.20
2022-12-06T03:16:11.928Z,1011.25
2022-12-06T03:17:11.851Z,1011.26
2022-12-06T03:18:11.842Z,1011.23
2022-12-06T03:19:11.837Z,1011.18
2022-12-06T03:20:11.824Z,1011.17
2022-12-06T03:21:11.810Z,1011.17
2022-12-06T03:22:11.795Z,1011.17
2022-12-06T03:23:11.794Z,1011.12
2022-12-06T03:24:11.781Z,1011.02
2022-12-06T03:25:11.768Z,1011.08
2022-12-06T03:26:11.749Z,1011.06
2022-12-06T03:27:11.776Z,1011.05
2022-12-06T03:28:11.740Z,1011.12
2022-12-06T03:29:11.729Z,1011.11
2022-12-06T03:30:11.722Z,1011.06
2022-12-06T03:31:11.776Z,1011.10
2022-12-06T03:32:11.691Z,1011.03
2022-12-06T03:33:11.677Z,1011.11
2022-12-06T03:34:11.663Z,1011.04
2022-12-06T03:35:11.656Z,1011.08
2022-12-06T03:36:11.643Z,1011.06
2022-12-06T03:37:11.632Z,1011.03
2022-12-06T03:38:11.616Z,1011.08
2022-12-06T03:39:11.605Z,1011.05
2022-12-06T03:40:11.595Z,1011.00
2022-12-06T03:41:11.594Z,1011.02
2022-12-06T03:42:11.578Z,1010.98
2022-12-06T03:43:11.591Z,1011.02
2022-12-06T03:44:11.548Z,1011.09
2022-12-06T03:45:11.537Z,1011.11
2022-12-06T03:46:11.745Z,1011.00
2022-12-06T03:47:11.606Z,1010.97
2022-12-06T03:48:11.511Z,1011.01
2022-12-06T03:49:11.491Z,1010.97
2022-12-06T03:50:11.487Z,1010.99
2022-12-06T03:51:11.470Z,1011.02
2022-12-06T03:52:11.464Z,1010.94
2022-12-06T03:53:11.460Z,1010.95
2022-12-06T03:54:11.450Z,1010.96
2022-12-06T03:55:11.430Z,1010.93
2022-12-06T03:56:11.423Z,1010.95
2022-12-06T03:57:11.409Z,1010.97
2022-12-06T03:58:11.398Z,1010.95
2022-12-06T03:59:11.409Z,1010.95
2022-12-06T04:00:11.371Z,1011.01
2022-12-06T04:01:11.389Z,1010.94
2022-12-06T04:02:11.391Z,1010.95
2022-12-06T04:03:11.343Z,1010.92
2022-12-06T04:04:11.400Z,1010.94
2022-12-06T04:05:11.325Z,1010.90
2022-12-06T04:06:11.301Z,1010.92
2022-12-06T04:07:11.298Z,1010.91
2022-12-06T04:08:11.330Z,1010.89
2022-12-06T04:09:11.271Z,1010.88
2022-12-06T04:10:11.276Z,1010.87
2022-12-06T04:11:11.245Z,1010.84
2022-12-06T04:12:11.243Z,1010.92
2022-12-06T04:13:15.273Z,1010.88
2022-12-06T04:14:11.218Z,1010.88
2022-12-06T04:15:11.223Z,1010.89
2022-12-06T04:16:11.268Z,1010.85
2022-12-06T04:17:11.184Z,1010.81
2022-12-06T04:18:11.190Z,1010.88
2022-12-06T04:19:11.162Z,1010.80
2022-12-06T04:20:11.148Z,1010.78
2022-12-06T04:21:11.145Z,1010.83
2022-12-06T04:22:11.129Z,1010.82
2022-12-06T04:23:11.115Z,1010.77
2022-12-06T04:24:11.106Z,1010.81
2022-12-06T04:25:11.092Z,1010.81
2022-12-06T04:26:11.075Z,1010.78
2022-12-06T04:27:11.066Z,1010.80
2022-12-06T04:28:11.058Z,1010.79
2022-12-06T04:29:11.051Z,1010.71
2022-12-06T04:30:11.040Z,1010.76
2022-12-06T04:31:11.078Z,1010.74
2022-12-06T04:32:11.022Z,1010.60
2022-12-06T04:33:11.003Z,1010.65
2022-12-06T04:34:10.986Z,1010.61
2022-12-06T04:35:10.983Z,1010.64
2022-12-06T04:36:10.963Z,1010.59
2022-12-06T04:37:10.964Z,1010.57
2022-12-06T04:38:10.950Z,1010.53
2022-12-06T04:39:10.936Z,1010.57
2022-12-06T04:40:10.927Z,1010.55
2022-12-06T04:41:10.913Z,1010.48
2022-12-06T04:42:10.895Z,1010.59
2022-12-06T04:43:10.891Z,1010.55
2022-12-06T04:44:10.882Z,1010.49
2022-12-06T04:45:10.869Z,1010.52
2022-12-06T04:46:10.879Z,1010.50
2022-12-06T04:47:10.973Z,1010.48
2022-12-06T04:48:10.836Z,1010.53
2022-12-06T04:49:10.818Z,1010.42
2022-12-06T04:50:10.811Z,1010.42
2022-12-06T04:51:10.803Z,1010.45
2022-12-06T04:52:10.790Z,1010.48
2022-12-06T04:53:10.775Z,1010.43
2022-12-06T04:54:10.760Z,1010.40
2022-12-06T04:55:10.758Z,1010.43
2022-12-06T04:56:10.737Z,1010.39
2022-12-06T04:57:10.730Z,1010.46
2022-12-06T04:58:10.728Z,1010.46
2022-12-06T04:59:10.705Z,1010.41
2022-12-06T05:00:10.699Z,1010.44
2022-12-06T05:01:10.737Z,1010.39
2022-12-06T05:02:10.677Z,1010.42
2022-12-06T05:03:12.692Z,1010.35
2022-12-06T05:04:10.761Z,1010.40
2022-12-06T05:05:10.644Z,1010.37
2022-12-06T05:06:10.636Z,1010.42
2022-12-06T05:07:10.623Z,1010.38
2022-12-06T05:08:10.694Z,1010.37
2022-12-06T05:09:10.591Z,1010.36
2022-12-06T05:10:10.582Z,1010.36
2022-12-06T05:11:10.575Z,1010.41
2022-12-06T05:12:10.559Z,1010.40
2022-12-06T05:13:10.587Z,1010.42
2022-12-06T05:14:10.550Z,1010.45
2022-12-06T05:15:10.532Z,1010.41
2022-12-06T05:16:10.572Z,1010.45
2022-12-06T05:17:10.507Z,1010.40
2022-12-06T05:18:10.506Z,1010.40
2022-12-06T05:19:10.500Z,1010.49
2022-12-06T05:20:10.474Z,1010.45
2022-12-06T05:21:10.457Z,1010.48
2022-12-06T05:22:10.445Z,1010.43
2022-12-06T05:23:10.439Z,1010.41
2022-12-06T05:24:10.427Z,1010.48
2022-12-06T05:25:10.412Z,1010.45
2022-12-06T05:26:10.401Z,1010.41
2022-12-06T05:27:10.389Z,1010.42
2022-12-06T05:28:10.379Z,1010.37
2022-12-06T05:29:10.380Z,1010.33
2022-12-06T05:30:10.364Z,1010.37
2022-12-06T05:31:10.358Z,1010.38
2022-12-06T05:32:10.332Z,1010.32
2022-12-06T05:33:10.323Z,1010.32
2022-12-06T05:34:10.314Z,1010.32
2022-12-06T05:35:10.330Z,1010.29
2022-12-06T05:36:10.287Z,1010.34
2022-12-06T05:37:10.276Z,1010.36
2022-12-06T05:38:10.264Z,1010.39
2022-12-06T05:39:10.255Z,1010.30
2022-12-06T05:40:10.243Z,1010.34
2022-12-06T05:41:10.241Z,1010.31
2022-12-06T05:42:10.401Z,1010.35
2022-12-06T05:43:10.224Z,1010.33
2022-12-06T05:44:10.204Z,1010.32
2022-12-06T05:45:10.197Z,1010.34
2022-12-06T05:46:10.248Z,1010.40
2022-12-06T05:47:10.164Z,1010.39
2022-12-06T05:48:10.155Z,1010.36
2022-12-06T05:49:10.160Z,1010.30
2022-12-06T05:50:10.137Z,1010.37
2022-12-06T05:51:10.149Z,1010.33
2022-12-06T05:52:10.118Z,1010.32
2022-12-06T05:53:10.096Z,1010.34
2022-12-06T05:54:10.094Z,1010.24
2022-12-06T05:55:10.081Z,1010.32
2022-12-06T05:56:10.073Z,1010.33
2022-12-06T05:57:10.059Z,1010.28
2022-12-06T05:58:10.049Z,1010.38
2022-12-06T05:59:10.037Z,1010.34
2022-12-06T06:00:10.024Z,1010.37
2022-12-06T06:01:10.039Z,1010.37
2022-12-06T06:02:10.137Z,1010.34
2022-12-06T06:03:10.121Z,1010.34
2022-12-06T06:04:09.986Z,1010.41
2022-12-06T06:05:09.967Z,1010.40
2022-12-06T06:06:09.951Z,1010.42
2022-12-06T06:07:09.965Z,1010.42
2022-12-06T06:08:10.049Z,1010.38
2022-12-06T06:09:09.924Z,1010.40
2022-12-06T06:10:09.906Z,1010.40
2022-12-06T06:11:09.894Z,1010.38
2022-12-06T06:12:12.679Z,1010.39
2022-12-06T06:13:09.883Z,1010.44
2022-12-06T06:14:09.866Z,1010.36
2022-12-06T06:15:09.856Z,1010.41
2022-12-06T06:16:09.918Z,1010.37
2022-12-06T06:17:09.841Z,1010.36
2022-12-06T06:18:09.822Z,1010.35
2022-12-06T06:19:09.819Z,1010.34
2022-12-06T06:20:09.806Z,1010.28
2022-12-06T06:21:09.781Z,1010.40
2022-12-06T06:22:09.777Z,1010.28
2022-12-06T06:23:09.782Z,1010.28
2022-12-06T06:24:09.750Z,1010.30
2022-12-06T06:25:09.742Z,1010.33
2022-12-06T06:26:09.738Z,1010.36
2022-12-06T06:27:09.741Z,1010.32
2022-12-06T06:28:09.701Z,1010.27
2022-12-06T06:29:09.695Z,1010.32
2022-12-06T06:30:09.687Z,1010.32
2022-12-06T06:31:09.677Z,1010.31
2022-12-06T06:32:09.738Z,1010.34
2022-12-06T06:33:09.654Z,1010.39
2022-12-06T06:34:09.641Z,1010.37
2022-12-06T06:35:09.622Z,1010.34
2022-12-06T06:36:09.618Z,1010.46
2022-12-06T06:37:09.608Z,1010.38
2022-12-06T06:38:09.588Z,1010.44
2022-12-06T06:39:09.603Z,1010.41
2022-12-06T06:40:09.570Z,1010.45
2022-12-06T06:41:09.561Z,1010.40
2022-12-06T06:42:09.549Z,1010.36
2022-12-06T06:43:11.541Z,1010.44
2022-12-06T06:44:09.522Z,1010.47
2022-12-06T06:45:09.516Z,1010.47
2022-12-06T06:46:09.559Z,1010.42
2022-12-06T06:47:09.487Z,1010.46
2022-12-06T06:48:09.480Z,1010.46
2022-12-06T06:49:09.476Z,1010.50
2022-12-06T06:50:09.463Z,1010.50
2022-12-06T06:51:09.452Z,1010.43
2022-12-06T06:52:11.443Z,1010.46
2022-12-06T06:53:09.418Z,1010.45
2022-12-06T06:54:09.418Z,1010.40
2022-12-06T06:55:09.431Z,1010.42
2022-12-06T06:56:09.392Z,1010.47
2022-12-06T06:57:14.259Z,1010.40
2022-12-06T06:58:09.364Z,1010.35
2022-12-06T06:59:09.352Z,1010.42
2022-12-06T07:00:09.349Z,1010.45
2022-12-06T07:01:09.433Z,1010.40
2022-12-06T07:02:09.376Z,1010.42
2022-12-06T07:03:09.306Z,1010.45
2022-12-06T07:04:09.296Z,1010.41
2022-12-06T07:05:09.298Z,1010.44
2022-12-06T07:06:11.272Z,1010.39
2022-12-06T07:07:09.262Z,1010.40
2022-12-06T07:08:11.326Z,1010.45
2022-12-06T07:09:11.239Z,1010.42
2022-12-06T07:10:09.231Z,1010.49
2022-12-06T07:11:09.257Z,1010.37
2022-12-06T07:12:09.213Z,1010.42
2022-12-06T07:13:09.194Z,1010.47
2022-12-06T07:14:11.206Z,1010.48
2022-12-06T07:15:09.187Z,1010.40
2022-12-06T07:16:11.162Z,1010.39
2022-12-06T07:17:09.314Z,1010.41
2022-12-06T07:18:09.144Z,1010.42
2022-12-06T07:19:09.415Z,1010.45
2022-12-06T07:20:09.116Z,1010.46
2022-12-06T07:21:11.138Z,1010.46
2022-12-06T07:22:09.094Z,1010.50
2022-12-06T07:23:09.086Z,1010.46
2022-12-06T07:24:09.069Z,1010.51
2022-12-06T07:25:11.058Z,1010.50
2022-12-06T07:26:11.068Z,1010.44
2022-12-06T07:27:09.042Z,1010.45
2022-12-06T07:28:09.035Z,1010.48
2022-12-06T07:29:09.019Z,1010.48
2022-12-06T07:30:15.788Z,1010.47
2022-12-06T07:31:09.057Z,1010.49
2022-12-06T07:32:11.041Z,1010.56
2022-12-06T07:33:08.975Z,1010.51
2022-12-06T07:34:08.961Z,1010.51
2022-12-06T07:35:08.955Z,1010.52
2022-12-06T07:36:13.717Z,1010.54
2022-12-06T07:37:08.927Z,1010.53
2022-12-06T07:38:08.918Z,1010.48
2022-12-06T07:39:14.709Z,1010.51
2022-12-06T07:40:10.894Z,1010.49
2022-12-06T07:41:08.881Z,1010.49
2022-12-06T07:42:08.892Z,1010.46
2022-12-06T07:43:08.868Z,1010.45
2022-12-06T07:44:10.849Z,1010.48
2022-12-06T07:45:08.846Z,1010.45
2022-12-06T07:46:08.921Z,1010.48
2022-12-06T07:47:10.816Z,1010.47
2022-12-06T07:48:08.806Z,1010.51
2022-12-06T07:49:08.789Z,1010.51
2022-12-06T07:50:12.842Z,1010.55
2022-12-06T07:51:08.766Z,1010.49
2022-12-06T07:52:08.764Z,1010.48
2022-12-06T07:53:08.742Z,1010.53
2022-12-06T07:54:08.740Z,1010.47
2022-12-06T07:55:08.733Z,1010.52
2022-12-06T07:56:08.716Z,1010.51
2022-12-06T07:57:10.706Z,1010.55
2022-12-06T07:58:08.710Z,1010.52
2022-12-06T07:59:08.674Z,1010.55
2022-12-06T08:00:08.775Z,1010.54
2022-12-06T08:01:08.782Z,1010.52
2022-12-06T08:02:08.650Z,1010.52
2022-12-06T08:03:08.629Z,1010.54
2022-12-06T08:04:08.758Z,1010.50
2022-12-06T08:05:08.624Z,1010.48
2022-12-06T08:06:08.599Z,1010.50
2022-12-06T08:07:08.590Z,1010.46
2022-12-06T08:08:08.731Z,1010.47
2022-12-06T08:09:08.563Z,1010.46
2022-12-06T08:10:08.553Z,1010.50
2022-12-06T08:11:08.647Z,1010.48
2022-12-06T08:12:08.531Z,1010.47
2022-12-06T08:13:08.531Z,1010.54
2022-12-06T08:14:08.557Z,1010.49
2022-12-06T08:15:08.503Z,1010.49
2022-12-06T08:16:08.514Z,1010.42
2022-12-06T08:17:08.482Z,1010.43
2022-12-06T08:18:08.462Z,1010.42
2022-12-06T08:19:08.473Z,1010.52
2022-12-06T08:20:08.441Z,1010.47
2022-12-06T08:21:08.426Z,1010.45
2022-12-06T08:22:08.422Z,1010.48
2022-12-06T08:23:08.404Z,1010.47
2022-12-06T08:24:08.399Z,1010.48
2022-12-06T08:25:08.391Z,1010.49
2022-12-06T08:26:08.378Z,1010.58
2022-12-06T08:27:08.365Z,1010.51
2022-12-06T08:28:08.360Z,1010.46
2022-12-06T08:29:08.343Z,1010.51
2022-12-06T08:30:08.353Z,1010.48
2022-12-06T08:31:08.540Z,1010.53
2022-12-06T08:32:08.308Z,1010.50
2022-12-06T08:33:08.299Z,1010.51
2022-12-06T08:34:08.280Z,1010.43
2022-12-06T08:35:08.273Z,1010.46
2022-12-06T08:36:08.259Z,1010.44
2022-12-06T08:37:08.254Z,1010.55
2022-12-06T08:38:08.256Z,1010.44
2022-12-06T08:39:08.223Z,1010.51
2022-12-06T08:40:08.224Z,1010.50
2022-12-06T08:41:08.218Z,1010.51
2022-12-06T08:42:08.207Z,1010.49
2022-12-06T08:43:08.187Z,1010.53
2022-12-06T08:44:08.176Z,1010.49
2022-12-06T08:45:08.164Z,1010.58
2022-12-06T08:46:08.235Z,1010.47
2022-12-06T08:47:08.140Z,1010.49
2022-12-06T08:48:08.138Z,1010.47
2022-12-06T08:49:08.117Z,1010.52
2022-12-06T08:50:08.125Z,1010.50
2022-12-06T08:51:08.096Z,1010.53
2022-12-06T08:52:08.084Z,1010.49
2022-12-06T08:53:08.066Z,1010.42
2022-12-06T08:54:08.054Z,1010.51
2022-12-06T08:55:08.052Z,1010.47
2022-12-06T08:56:08.034Z,1010.47
2022-12-06T08:57:08.026Z,1010.50
2022-12-06T08:58:08.011Z,1010.47
2022-12-06T08:59:08.004Z,1010.51
2022-12-06T09:00:07.999Z,1010.54
2022-12-06T09:01:08.074Z,1010.57
2022-12-06T09:02:08.040Z,1010.49
2022-12-06T09:03:07.951Z,1010.56
2022-12-06T09:04:08.085Z,1010.51
2022-12-06T09:05:08.042Z,1010.49
2022-12-06T09:06:07.919Z,1010.47
2022-12-06T09:07:11.677Z,1010.50
2022-12-06T09:08:07.970Z,1010.51
2022-12-06T09:09:07.886Z,1010.44
2022-12-06T09:10:07.873Z,1010.52
2022-12-06T09:11:07.869Z,1010.49
2022-12-06T09:12:07.858Z,1010.47
2022-12-06T09:13:07.842Z,1010.45
2022-12-06T09:14:07.835Z,1010.51
2022-12-06T09:15:07.830Z,1010.47
2022-12-06T09:16:07.952Z,1010.41
2022-12-06T09:17:07.795Z,1010.41
2022-12-06T09:18:07.823Z,1010.37
2022-12-06T09:19:07.777Z,1010.41
2022-12-06T09:20:08.281Z,1010.40
2022-12-06T09:21:07.759Z,1010.49
2022-12-06T09:22:07.742Z,1010.42
2022-12-06T09:23:07.738Z,1010.42
2022-12-06T09:24:07.717Z,1010.42
2022-12-06T09:25:07.716Z,1010.38
2022-12-06T09:26:07.701Z,1010.43
2022-12-06T09:27:07.682Z,1010.44
2022-12-06T09:28:07.683Z,1010.43
2022-12-06T09:29:07.665Z,1010.42
2022-12-06T09:30:07.649Z,1010.37
2022-12-06T09:31:07.767Z,1010.41
2022-12-06T09:32:07.632Z,1010.43
2022-12-06T09:33:07.623Z,1010.40
2022-12-06T09:34:07.639Z,1010.45
2022-12-06T09:35:12.306Z,1010.39
2022-12-06T09:36:07.589Z,1010.40
2022-12-06T09:37:07.584Z,1010.38
2022-12-06T09:38:07.568Z,1010.38
2022-12-06T09:39:07.553Z,1010.35
2022-12-06T09:40:07.541Z,1010.36
2022-12-06T09:41:07.532Z,1010.38
2022-12-06T09:42:07.521Z,1010.40
2022-12-06T09:43:07.510Z,1010.34
2022-12-06T09:44:07.499Z,1010.34
2022-12-06T09:45:07.490Z,1010.32
2022-12-06T09:46:07.567Z,1010.27
2022-12-06T09:47:07.459Z,1010.35
2022-12-06T09:48:07.455Z,1010.30
2022-12-06T09:49:07.444Z,1010.33
2022-12-06T09:50:07.450Z,1010.25
2022-12-06T09:51:07.420Z,1010.25
2022-12-06T09:52:07.411Z,1010.26
2022-12-06T09:53:07.409Z,1010.28
2022-12-06T09:54:07.385Z,1010.23
2022-12-06T09:55:07.372Z,1010.29
2022-12-06T09:56:07.385Z,1010.28
2022-12-06T09:57:07.357Z,1010.24
2022-12-06T09:58:07.343Z,1010.24
2022-12-06T09:59:07.334Z,1010.20
2022-12-06T10:00:11.437Z,1010.21
2022-12-06T10:01:07.303Z,1010.17
2022-12-06T10:02:07.359Z,1010.25
2022-12-06T10:03:07.395Z,1010.20
2022-12-06T10:04:07.281Z,1010.22
2022-12-06T10:05:07.272Z,1010.20
2022-12-06T10:06:07.288Z,1010.14
2022-12-06T10:07:07.242Z,1010.16
2022-12-06T10:08:07.310Z,1010.17
2022-12-06T10:09:07.343Z,1010.16
2022-12-06T10:10:07.206Z,1010.16
2022-12-06T10:11:08.859Z,1010.18
2022-12-06T10:12:07.180Z,1010.08
2022-12-06T10:13:07.174Z,1010.12
2022-12-06T10:14:07.163Z,1010.10
2022-12-06T10:15:07.152Z,1010.06
2022-12-06T10:16:07.188Z,1010.09
2022-12-06T10:17:09.407Z,1010.05
2022-12-06T10:18:07.124Z,1009.99
2022-12-06T10:19:07.108Z,1010.03
2022-12-06T10:20:07.097Z,1010.05
2022-12-06T10:21:07.087Z,1010.07
2022-12-06T10:22:07.101Z,1010.04
2022-12-06T10:23:07.064Z,1010.10
2022-12-06T10:24:07.060Z,1010.03
2022-12-06T10:25:07.043Z,1010.04
2022-12-06T10:26:07.035Z,1010.00
2022-12-06T10:27:07.019Z,1009.96
2022-12-06T10:28:07.003Z,1010.07
2022-12-06T10:29:06.993Z,1009.98
2022-12-06T10:30:06.992Z,1009.97
2022-12-06T10:31:07.041Z,1010.01
2022-12-06T10:32:06.959Z,1009.98
2022-12-06T10:33:06.950Z,1009.96
2022-12-06T10:34:06.941Z,1009.93
2022-12-06T10:35:07.263Z,1009.95
2022-12-06T10:36:06.923Z,1009.94
2022-12-06T10:37:06.918Z,1009.94
2022-12-06T10:38:06.921Z,1009.87
2022-12-06T10:39:06.888Z,1009.91
2022-12-06T10:40:07.188Z,1009.88
2022-12-06T10:41:06.867Z,1009.87
2022-12-06T10:42:06.850Z,1009.87
2022-12-06T10:43:06.849Z,1009.87
2022-12-06T10:44:06.827Z,1009.90
2022-12-06T10:45:06.826Z,1009.91
2022-12-06T10:46:09.218Z,1009.92
2022-12-06T10:47:06.939Z,1009.92
2022-12-06T10:48:06.782Z,1009.87
2022-12-06T10:49:06.779Z,1009.92
2022-12-06T10:50:06.767Z,1009.84
2022-12-06T10:51:06.749Z,1009.77
2022-12-06T10:52:06.842Z,1009.88
2022-12-06T10:53:06.735Z,1009.79
2022-12-06T10:54:06.753Z,1009.81
2022-12-06T10:55:06.717Z,1009.83
2022-12-06T10:56:06.703Z,1009.81
2022-12-06T10:57:06.683Z,1009.77
2022-12-06T10:58:06.682Z,1009.83
2022-12-06T10:59:06.671Z,1009.87
2022-12-06T11:00:11.839Z,1009.85
2022-12-06T11:01:06.706Z,1009.80
2022-12-06T11:02:06.704Z,1009.76
2022-12-06T11:03:06.624Z,1009.80
2022-12-06T11:04:06.618Z,1009.78
2022-12-06T11:05:06.600Z,1009.81
2022-12-06T11:06:06.670Z,1009.83
2022-12-06T11:07:06.573Z,1009.74
2022-12-06T11:08:06.649Z,1009.82
2022-12-06T11:09:06.557Z,1009.77
2022-12-06T11:10:06.575Z,1009.76
2022-12-06T11:11:06.532Z,1009.69
2022-12-06T11:12:06.519Z,1009.74
2022-12-06T11:13:06.520Z,1009.75
2022-12-06T11:14:06.502Z,1009.67
2022-12-06T11:15:06.492Z,1009.69
2022-12-06T11:16:06.528Z,1009.72
2022-12-06T11:17:06.470Z,1009.70
2022-12-06T11:18:06.455Z,1009.65
2022-12-06T11:19:06.455Z,1009.62
2022-12-06T11:20:06.444Z,1009.64
2022-12-06T11:21:06.426Z,1009.67
2022-12-06T11:22:06.408Z,1009.65
2022-12-06T11:23:06.406Z,1009.64
2022-12-06T11:24:06.399Z,1009.61
2022-12-06T11:25:06.376Z,1009.63
2022-12-06T11:26:06.392Z,1009.68
2022-12-06T11:27:06.359Z,1009.65
2022-12-06T11:28:06.350Z,1009.63
2022-12-06T11:29:06.341Z,1009.65
2022-12-06T11:30:06.329Z,1009.67
2022-12-06T11:31:06.372Z,1009.59
2022-12-06T11:32:06.306Z,1009.65
2022-12-06T11:33:06.288Z,1009.63
2022-12-06T11:34:06.292Z,1009.60
2022-12-06T11:35:06.273Z,1009.56
2022-12-06T11:36:06.255Z,1009.55
2022-12-06T11:37:06.258Z,1009.55
2022-12-06T11:38:06.234Z,1009.65
2022-12-06T11:39:06.231Z,1009.61
2022-12-06T11:40:06.213Z,1009.59
2022-12-06T11:41:06.202Z,1009.50
2022-12-06T11:42:06.214Z,1009.53
2022-12-06T11:43:06.181Z,1009.55
2022-12-06T11:44:06.179Z,1009.58
2022-12-06T11:45:06.412Z,1009.49
2022-12-06T11:46:06.149Z,1009.50
2022-12-06T11:47:06.201Z,1009.50
2022-12-06T11:48:06.133Z,1009.49
2022-12-06T11:49:06.792Z,1009.47
2022-12-06T11:50:09.416Z,1009.43
2022-12-06T11:51:06.091Z,1009.47
2022-12-06T11:52:06.081Z,1009.49
2022-12-06T11:53:06.071Z,1009.39
2022-12-06T11:54:06.065Z,1009.44
2022-12-06T11:55:06.053Z,1009.38
2022-12-06T11:56:06.041Z,1009.41
2022-12-06T11:57:06.024Z,1009.30
2022-12-06T11:58:06.038Z,1009.39
2022-12-06T11:59:06.008Z,1009.35
2022-12-06T12:00:05.997Z,1009.31
2022-12-06T12:01:05.983Z,1009.25
2022-12-06T12:02:06.039Z,1009.28
2022-12-06T12:03:06.155Z,1009.27
2022-12-06T12:04:05.959Z,1009.23
2022-12-06T12:05:05.947Z,1009.30